WetterOnline ( https://www.wetteronline.de )

Wetter aktuell Bietigheim-Bissingen

Aktuelles Wetter: Schnarrenberg/Stuttgart (315m)

6-stündlich | Neueste Meldungen
Ortszeit Temperatur Wetter
Fr, 27.05. 8:00 14.4° C bedeckt
Fr, 27.05. 2:00 15.4° C bedeckt
Do, 26.05. 20:00 19.0° C leicht bewölkt
Do, 26.05. 14:00 17.3° C bedeckt
Do, 26.05. 8:00 14.6° C leicht bewölkt
Do, 26.05. 2:00 14.4° C wolkig
Mi, 25.05. 20:00 19.1° C leicht bewölkt
Mi, 25.05. 14:00 19.2° C leicht bewölkt
Ortszeit Temperatur Wetter
Fr, 27.05. 13:00 16.9° C bedeckt
Fr, 27.05. 12:50 16.9° C bedeckt
Fr, 27.05. 12:40 17.1° C bedeckt
Fr, 27.05. 12:30 17.2° C bedeckt
Fr, 27.05. 12:20 17.2° C bedeckt
Fr, 27.05. 12:10 17.2° C bedeckt
Fr, 27.05. 12:00 16.0° C bedeckt
Fr, 27.05. 11:30 15.7° C bewölkt
Fr, 27.05. 11:00 14.9° C bedeckt
Fr, 27.05. 10:30 14.9° C bewölkt
Fr, 27.05. 10:00 14.7° C bedeckt
Ortszeit Relative Feuchte Sichtweite
Fr, 27.05. 8:00 73% 60 km
Fr, 27.05. 2:00 64% >70 km
Do, 26.05. 20:00 50% 55 km
Do, 26.05. 14:00 56% >70 km
Do, 26.05. 8:00 61% >70 km
Do, 26.05. 2:00 59% >70 km
Mi, 25.05. 20:00 42% >70 km
Mi, 25.05. 14:00 40% >70 km
Ortszeit Relative Feuchte Sichtweite
Fr, 27.05. 13:00 59% 60 km
Fr, 27.05. 12:50 59% -
Fr, 27.05. 12:40 59% -
Fr, 27.05. 12:30 57% 40 km
Fr, 27.05. 12:20 57% -
Fr, 27.05. 12:10 62% -
Fr, 27.05. 12:00 65% 45 km
Fr, 27.05. 11:30 68% 40 km
Fr, 27.05. 11:00 73% 45 km
Fr, 27.05. 10:30 72% 45 km
Fr, 27.05. 10:00 74% 45 km
Ortszeit Niederschlagsmenge Niederschlagsart
Fr, 27.05. 8:00 0.0 l/m2 in 12 Std. -
Fr, 27.05. 2:00 0.0 l/m2 in 6 Std. -
Do, 26.05. 20:00 0.0 l/m2 in 12 Std. -
Do, 26.05. 14:00 0.0 l/m2 in 6 Std. -
Do, 26.05. 8:00 0.0 l/m2 in 12 Std. -
Do, 26.05. 2:00 0.0 l/m2 in 6 Std. -
Mi, 25.05. 20:00 0.0 l/m2 in 12 Std. -
Mi, 25.05. 14:00 0.1 l/m2 in 6 Std. Sprühregen
Ortszeit Niederschlagsmenge Niederschlagsart
Fr, 27.05. 13:00 0.0 l/m2 in 1 Std. -
Fr, 27.05. 12:50 keine Meldung -
Fr, 27.05. 12:40 keine Meldung -
Fr, 27.05. 12:30 0.0 l/m2 in 1 Std. -
Fr, 27.05. 12:20 keine Meldung -
Fr, 27.05. 12:10 keine Meldung -
Fr, 27.05. 12:00 0.0 l/m2 in 1 Std. -
Fr, 27.05. 11:30 0.0 l/m2 in 1 Std. -
Fr, 27.05. 11:00 0.0 l/m2 in 1 Std. -
Fr, 27.05. 10:30 0.0 l/m2 in 1 Std. -
Fr, 27.05. 10:00 0.0 l/m2 in 1 Std. -
Ortszeit Stärke Spitze Richtung
km/h Bft. km/h Grad Sektor
Fr, 27.05. 8:00 7 2 18 280° W
Fr, 27.05. 2:00 7 2 24 220° SW
Do, 26.05. 20:00 17 3 31 300° NW
Do, 26.05. 14:00 13 3 28 280° W
Do, 26.05. 8:00 7 2 22 220° SW
Do, 26.05. 2:00 9 2 33 270° W
Mi, 25.05. 20:00 18 3 36 310° NW
Mi, 25.05. 14:00 7 2 29 290° W
Ortszeit Stärke Spitze Richtung
km/h Bft. km/h Grad Sektor
Fr, 27.05. 13:00 14 3 36 290° W
Fr, 27.05. 12:50 14 3 - 290° W
Fr, 27.05. 12:40 14 3 - 290° W
Fr, 27.05. 12:30 17 3 37 280° W
Fr, 27.05. 12:20 17 3 - 280° W
Fr, 27.05. 12:10 18 3 - 270° W
Fr, 27.05. 12:00 17 3 33 280° W
Fr, 27.05. 11:30 18 3 32 290° W
Fr, 27.05. 11:00 13 3 30 300° NW
Fr, 27.05. 10:30 14 3 29 280° W
Fr, 27.05. 10:00 11 2 29 290° W
Ortszeit Untergrenze Bedeckung Gattung
total tief tief mittel hoch
Fr, 27.05. 8:00 720 m 8/8 8/8 - - -
Fr, 27.05. 2:00 5700 m 8/8 8/8 - - -
Do, 26.05. 20:00 6300 m 3/8 3/8 - - -
Do, 26.05. 14:00 1350 m 8/8 8/8 - - -
Do, 26.05. 8:00 1800 m 3/8 3/8 - - -
Do, 26.05. 2:00 1800 m 6/8 5/8 - - -
Mi, 25.05. 20:00 9000 m 4/8 0/8 - - -
Mi, 25.05. 14:00 1500 m 4/8 4/8 - - -
Ortszeit Bedeckungsgrad in Achtel und Wolkenuntergrenze
Fr, 27.05. 13:00 8(1200m)
Fr, 27.05. 12:50 8(1200m)
Fr, 27.05. 12:40 8
Fr, 27.05. 12:30 8(1200m)
Fr, 27.05. 12:20 8(1200m)
Fr, 27.05. 12:10 8
Fr, 27.05. 12:00 1(810m) 8(1140m)
Fr, 27.05. 11:30 5(660m) 5(870m) 7(1230m)
Fr, 27.05. 11:00 7(660m) 7(780m) 8(990m)
Fr, 27.05. 10:30 7(690m) 7(840m)
Fr, 27.05. 10:00 8(630m)
Ortszeit Luftdruck NN (hPa) Tendenz (hPa in 3 Std.)
Fr, 27.05. 8:00 1023 + 0,6
Fr, 27.05. 2:00 1023 - 0,6
Do, 26.05. 20:00 1022 - 1,0
Do, 26.05. 14:00 1024 + 0,3
Do, 26.05. 8:00 1023 + 1,3
Do, 26.05. 2:00 1022 + 1,0
Mi, 25.05. 20:00 1018 + 1,0
Mi, 25.05. 14:00 1017 + 0,1
Ortszeit Luftdruck NN (hPa) Tendenz (hPa in 3 Std.)
Fr, 27.05. 13:00 1022 - 0,6
Fr, 27.05. 12:50 1022 keine Meldung
Fr, 27.05. 12:40 1022 keine Meldung
Fr, 27.05. 12:30 1022 - 0,3
Fr, 27.05. 12:20 1022 keine Meldung
Fr, 27.05. 12:10 1022 keine Meldung
Fr, 27.05. 12:00 1023 + 0,2
Fr, 27.05. 11:30 1023 + 0,3
Fr, 27.05. 11:00 1023 + 0,3
Fr, 27.05. 10:30 1023 + 0,3
Fr, 27.05. 10:00 1023 + 0,6
Ortszeit Schneehöhe (cm)
Fr, 27.05. 8:00 0
Fr, 27.05. 2:00 0
Do, 26.05. 20:00 0
Do, 26.05. 14:00 0
Do, 26.05. 8:00 0
Do, 26.05. 2:00 0
Mi, 25.05. 20:00 0
Mi, 25.05. 14:00 0
Ortszeit Schneehöhe (cm)
Fr, 27.05. 13:00 0
Fr, 27.05. 12:50 0
Fr, 27.05. 12:40 0
Fr, 27.05. 12:30 0
Fr, 27.05. 12:20 0
Fr, 27.05. 12:10 0
Fr, 27.05. 12:00 0
Fr, 27.05. 11:30 0
Fr, 27.05. 11:00 0
Fr, 27.05. 10:30 0
Fr, 27.05. 10:00 0
Link zu dieser Seite / Seite empfehlen

Das Wetter in ...